Time;durP1;ratioP1;P1;durP2;ratioP2;P2;SDS_P1;SDS_P2;PMS_P1;PMS_P2;Temp;Humidity;BMP_temperature;BMP_pressure;BME280_temperature;BME280_humidity;BME280_pressure;Samples;Min_cycle;Max_cycle;Signal;HPM_P1;HPM_P2
2021/10/24 00:02:04;;;;;;;12.63;2.23;;;21.50;99.90;;;;;;5095351;28;20178;-74
2021/10/24 00:04:31;;;;;;;14.30;3.37;;;21.90;99.90;;;;;;5104013;28;20273;-73
2021/10/24 00:07:00;;;;;;;16.00;2.93;;;22.20;99.90;;;;;;5108929;28;20173;-75
2021/10/24 00:09:27;;;;;;;13.63;3.07;;;22.50;99.90;;;;;;5094877;28;20190;-75
2021/10/24 00:11:55;;;;;;;17.70;2.90;;;22.70;99.90;;;;;;5108126;28;20170;-72
2021/10/24 00:14:22;;;;;;;16.33;2.73;;;22.10;99.90;;;;;;5086784;28;20235;-74
2021/10/24 00:16:50;;;;;;;14.83;2.33;;;22.20;99.90;;;;;;5093971;28;20183;-75
2021/10/24 00:19:17;;;;;;;13.70;2.90;;;22.30;99.90;;;;;;5094768;28;20269;-74
2021/10/24 00:21:45;;;;;;;14.23;2.83;;;22.60;99.90;;;;;;5094049;28;20211;-74
2021/10/24 00:24:12;;;;;;;15.07;2.70;;;22.30;99.90;;;;;;5092675;28;20214;-75
2021/10/24 00:26:39;;;;;;;14.03;3.03;;;22.50;99.90;;;;;;5077183;28;20269;-75
2021/10/24 00:29:07;;;;;;;19.43;3.30;;;22.40;99.90;;;;;;5087374;28;20736;-74
2021/10/24 00:31:34;;;;;;;15.67;3.20;;;22.40;99.90;;;;;;5097633;28;20174;-73
2021/10/24 00:34:03;;;;;;;15.13;2.80;;;22.50;99.90;;;;;;5093731;28;20178;-75
2021/10/24 00:36:30;;;;;;;14.10;2.30;;;22.60;99.90;;;;;;5094477;28;20193;-75
2021/10/24 00:38:58;;;;;;;13.37;3.13;;;22.80;99.90;;;;;;5094159;28;20277;-73
2021/10/24 00:41:25;;;;;;;13.60;2.50;;;23.10;99.90;;;;;;5094136;28;20185;-73
2021/10/24 00:43:53;;;;;;;14.30;3.57;;;23.20;99.90;;;;;;5093918;28;20187;-75
2021/10/24 00:46:20;;;;;;;15.00;3.03;;;23.40;99.90;;;;;;5094239;28;20182;-74
2021/10/24 00:48:47;;;;;;;14.33;2.63;;;23.30;99.70;;;;;;5093042;28;20227;-75
2021/10/24 00:51:15;;;;;;;12.60;3.00;;;23.20;99.70;;;;;;5093523;28;20174;-75
2021/10/24 00:53:42;;;;;;;14.23;2.53;;;23.40;99.80;;;;;;5089334;28;20175;-73
2021/10/24 00:56:11;;;;;;;13.33;2.63;;;23.30;99.50;;;;;;5075413;28;20674;-72
2021/10/24 00:58:40;;;;;;;9.97;2.23;;;23.10;99.60;;;;;;5094266;28;20193;-73
2021/10/24 01:01:07;;;;;;;14.60;2.73;;;23.10;99.60;;;;;;5093883;28;20187;-72
2021/10/24 01:03:36;;;;;;;12.70;2.83;;;23.40;99.50;;;;;;5086076;28;20194;-71
2021/10/24 01:06:04;;;;;;;10.10;1.83;;;23.30;99.20;;;;;;5091202;28;20792;-73
2021/10/24 01:08:32;;;;;;;13.00;2.27;;;23.20;99.60;;;;;;5092409;28;20601;-75
2021/10/24 01:10:59;;;;;;;11.77;2.70;;;23.00;99.50;;;;;;5092777;28;20187;-77
2021/10/24 01:13:27;;;;;;;12.00;2.53;;;23.30;99.30;;;;;;5092173;28;20708;-73
2021/10/24 01:16:18;;;;;;;12.40;2.33;;;23.40;98.90;;;;;;5091637;28;20747;-74
2021/10/24 01:18:46;;;;;;;15.17;2.40;;;22.90;99.70;;;;;;5090969;28;20178;-76
2021/10/24 01:21:14;;;;;;;10.13;2.63;;;22.60;99.90;;;;;;5090291;28;20213;-74
2021/10/24 01:23:42;;;;;;;11.13;2.17;;;22.70;99.90;;;;;;5092339;28;20198;-74
2021/10/24 01:26:10;;;;;;;10.63;2.30;;;22.90;99.70;;;;;;5092303;28;20671;-74
2021/10/24 01:28:37;;;;;;;11.07;2.53;;;22.40;99.90;;;;;;5085464;28;20179;-75
2021/10/24 01:31:04;;;;;;;14.20;2.43;;;22.80;99.90;;;;;;5088531;28;20179;-75
2021/10/24 01:33:32;;;;;;;11.83;2.30;;;23.10;99.80;;;;;;5091840;28;20528;-73
2021/10/24 01:36:06;;;;;;;9.80;2.40;;;23.40;99.40;;;;;;5091679;28;20715;-74
2021/10/24 01:38:35;;;;;;;9.53;2.00;;;23.30;99.00;;;;;;5091899;28;20667;-73
2021/10/24 01:41:07;;;;;;;17.80;2.93;;;23.30;99.30;;;;;;5091972;28;20289;-75
2021/10/24 01:43:35;;;;;;;13.50;2.60;;;23.60;99.30;;;;;;5092144;28;20170;-74
2021/10/24 01:46:03;;;;;;;11.07;2.30;;;23.70;98.10;;;;;;5090001;28;20648;-74
2021/10/24 01:48:30;;;;;;;8.97;2.40;;;23.80;98.10;;;;;;5092830;28;20771;-73
2021/10/24 01:50:58;;;;;;;7.37;2.10;;;23.10;98.00;;;;;;5089609;28;21663;-73
2021/10/24 01:53:28;;;;;;;11.27;2.17;;;22.50;99.40;;;;;;5098005;28;20177;-73
2021/10/24 01:55:56;;;;;;;11.17;2.57;;;22.80;99.60;;;;;;5090920;28;20217;-72
2021/10/24 01:58:25;;;;;;;11.47;2.33;;;23.30;99.10;;;;;;5090202;28;20205;-72
2021/10/24 02:00:53;;;;;;;11.57;2.03;;;23.60;98.30;;;;;;5089834;28;20717;-73
2021/10/24 02:03:21;;;;;;;15.10;2.47;;;23.70;98.00;;;;;;5089353;28;20189;-72
2021/10/24 02:05:48;;;;;;;12.20;2.03;;;23.90;97.50;;;;;;5090064;28;20195;-74
2021/10/24 02:08:16;;;;;;;16.10;2.67;;;24.00;97.40;;;;;;5090596;28;20513;-72
2021/10/24 02:10:45;;;;;;;12.13;3.17;;;24.00;97.10;;;;;;5089828;28;20182;-74
2021/10/24 02:13:12;;;;;;;8.03;2.03;;;24.00;97.40;;;;;;5085956;28;20214;-73
2021/10/24 02:15:40;;;;;;;11.93;1.93;;;24.40;97.30;;;;;;5087826;28;20214;-72
2021/10/24 02:18:09;;;;;;;8.17;1.90;;;24.50;96.60;;;;;;5090345;28;20680;-72
2021/10/24 02:20:38;;;;;;;12.27;2.37;;;24.20;96.40;;;;;;5090444;28;20508;-73
2021/10/24 02:23:06;;;;;;;11.93;2.00;;;24.50;96.40;;;;;;5090083;28;20279;-74
2021/10/24 02:25:35;;;;;;;15.20;2.37;;;24.60;96.10;;;;;;5089434;28;20175;-73
2021/10/24 02:28:02;;;;;;;13.87;2.17;;;24.10;96.80;;;;;;5080533;28;20654;-71
2021/10/24 02:30:30;;;;;;;12.10;2.50;;;23.80;97.50;;;;;;5088203;28;20179;-76
2021/10/24 02:32:58;;;;;;;11.73;2.37;;;23.40;98.10;;;;;;5089898;28;20189;-73
2021/10/24 02:35:26;;;;;;;12.80;3.30;;;22.80;98.40;;;;;;5091078;28;20202;-73
2021/10/24 02:37:54;;;;;;;10.73;1.87;;;22.80;98.90;;;;;;5088375;28;20261;-73
2021/10/24 02:40:23;;;;;;;11.83;2.40;;;23.30;98.50;;;;;;5090954;28;20198;-72
2021/10/24 02:42:52;;;;;;;11.60;2.10;;;23.00;98.10;;;;;;5091478;28;21510;-73
2021/10/24 02:45:20;;;;;;;13.10;2.00;;;22.60;98.80;;;;;;5086237;28;20636;-72
2021/10/24 02:47:47;;;;;;;10.13;2.23;;;22.60;99.20;;;;;;5089627;28;20647;-75
2021/10/24 02:50:14;;;;;;;18.30;2.67;;;23.30;98.20;;;;;;5091722;28;20263;-73
2021/10/24 02:52:42;;;;;;;11.83;3.17;;;23.50;97.60;;;;;;5091363;28;20166;-73
2021/10/24 02:55:10;;;;;;;13.30;1.93;;;23.40;97.80;;;;;;5091625;28;20260;-74
2021/10/24 02:57:37;;;;;;;9.97;1.80;;;23.40;97.80;;;;;;5091047;28;20269;-74
2021/10/24 03:00:07;;;;;;;13.40;2.20;;;23.00;98.00;;;;;;5089006;28;20244;-75
2021/10/24 03:02:36;;;;;;;12.07;2.20;;;22.80;99.10;;;;;;5090411;28;20273;-73
2021/10/24 03:05:08;;;;;;;10.13;1.70;;;23.40;98.50;;;;;;5084231;28;20175;-75
2021/10/24 03:07:37;;;;;;;10.40;1.70;;;24.00;97.40;;;;;;5091032;28;20199;-75
2021/10/24 03:10:05;;;;;;;7.53;1.70;;;24.70;96.70;;;;;;5082002;28;20174;-75
2021/10/24 03:12:33;;;;;;;10.80;2.30;;;24.60;96.10;;;;;;5089917;28;20187;-75
2021/10/24 03:15:02;;;;;;;9.93;2.17;;;24.40;96.70;;;;;;5087011;28;20244;-74
2021/10/24 03:17:29;;;;;;;8.63;2.10;;;24.60;96.00;;;;;;5090807;28;20593;-70
2021/10/24 03:19:56;;;;;;;12.07;2.47;;;24.10;96.50;;;;;;5091763;28;20276;-71
2021/10/24 03:22:24;;;;;;;7.63;2.13;;;24.00;97.00;;;;;;5079799;28;20582;-72
2021/10/24 03:24:51;;;;;;;12.90;2.13;;;24.20;96.60;;;;;;5079102;28;20171;-75
2021/10/24 03:27:18;;;;;;;10.77;2.67;;;24.50;96.60;;;;;;5091940;28;20281;-72
2021/10/24 03:29:46;;;;;;;9.23;2.03;;;24.40;96.30;;;;;;5090496;28;20596;-75
2021/10/24 03:32:13;;;;;;;15.23;2.10;;;24.90;96.00;;;;;;5071788;28;20708;-76
2021/10/24 03:34:40;;;;;;;8.47;2.33;;;25.10;95.60;;;;;;5094282;28;20300;-74
2021/10/24 03:37:08;;;;;;;9.20;2.00;;;25.20;94.80;;;;;;5093958;28;20190;-73
2021/10/24 03:39:36;;;;;;;9.87;1.77;;;25.30;94.60;;;;;;5096726;28;20167;-76
2021/10/24 03:42:03;;;;;;;7.93;1.80;;;25.10;94.80;;;;;;5095497;28;20182;-73
2021/10/24 03:44:30;;;;;;;11.20;2.00;;;25.40;94.90;;;;;;5095668;28;20205;-74
2021/10/24 03:46:58;;;;;;;12.80;2.17;;;24.90;94.80;;;;;;5094044;28;20190;-77
2021/10/24 03:49:25;;;;;;;11.67;1.73;;;25.00;94.90;;;;;;5095081;28;20174;-78
2021/10/24 03:51:53;;;;;;;10.87;2.37;;;25.60;94.40;;;;;;5094083;28;20170;-72
2021/10/24 03:54:20;;;;;;;15.10;5.83;;;24.40;95.10;;;;;;5093361;28;20183;-76
2021/10/24 03:56:47;;;;;;;11.53;2.20;;;24.80;95.40;;;;;;5096279;28;20227;-76
2021/10/24 03:59:15;;;;;;;5.83;1.90;;;25.60;94.60;;;;;;5095061;28;20174;-74
2021/10/24 04:01:42;;;;;;;9.53;1.63;;;26.10;94.10;;;;;;5095023;28;20629;-76
2021/10/24 04:04:09;;;;;;;11.93;1.70;;;26.30;93.30;;;;;;5075043;28;20171;-77
2021/10/24 04:06:37;;;;;;;6.50;1.63;;;26.10;93.30;;;;;;5094702;28;20174;-75
2021/10/24 04:09:04;;;;;;;14.10;2.17;;;25.50;94.20;;;;;;5095288;28;20239;-73
2021/10/24 04:11:31;;;;;;;8.50;1.50;;;26.70;92.70;;;;;;5094315;28;20580;-78
2021/10/24 04:13:59;;;;;;;10.47;1.90;;;26.90;92.10;;;;;;5094183;28;20221;-75
2021/10/24 04:16:26;;;;;;;7.57;1.80;;;25.70;93.40;;;;;;5095155;28;20725;-74
2021/10/24 04:18:54;;;;;;;10.73;1.73;;;25.00;93.80;;;;;;5094813;28;20254;-73
2021/10/24 04:21:21;;;;;;;9.10;1.63;;;24.00;95.20;;;;;;5094890;28;20167;-75
2021/10/24 04:23:49;;;;;;;13.20;1.90;;;23.60;95.30;;;;;;5094442;28;20174;-72
2021/10/24 04:26:16;;;;;;;4.43;1.80;;;24.30;95.20;;;;;;5094391;28;20544;-75
2021/10/24 04:28:44;;;;;;;7.87;1.77;;;25.60;93.90;;;;;;5094394;28;20187;-74
2021/10/24 04:31:12;;;;;;;11.07;1.60;;;26.50;92.90;;;;;;5094465;28;20703;-76
2021/10/24 04:33:39;;;;;;;11.90;1.93;;;26.20;92.00;;;;;;5094422;28;20206;-74
2021/10/24 04:36:06;;;;;;;8.37;1.57;;;26.90;91.80;;;;;;5093994;28;20676;-73
2021/10/24 04:38:34;;;;;;;6.83;1.93;;;26.70;91.30;;;;;;5094312;28;20163;-74
2021/10/24 04:41:01;;;;;;;8.17;1.87;;;26.40;91.70;;;;;;5093897;28;20174;-75
2021/10/24 04:43:28;;;;;;;5.93;1.90;;;26.10;91.50;;;;;;5088121;28;20257;-74
2021/10/24 04:45:56;;;;;;;9.77;1.60;;;26.30;92.00;;;;;;5093478;28;20182;-73
2021/10/24 04:48:23;;;;;;;10.87;2.00;;;25.90;91.70;;;;;;5088258;28;20732;-74
2021/10/24 04:50:51;;;;;;;7.97;1.50;;;25.90;92.10;;;;;;5091224;28;20724;-73
2021/10/24 04:53:19;;;;;;;9.10;1.70;;;25.70;91.80;;;;;;5092702;28;20174;-74
2021/10/24 04:55:47;;;;;;;7.83;2.07;;;25.70;92.60;;;;;;5091010;28;20297;-72
2021/10/24 04:58:14;;;;;;;6.40;1.90;;;26.50;91.40;;;;;;5086963;28;20194;-78
2021/10/24 05:00:41;;;;;;;10.23;1.67;;;26.20;91.40;;;;;;5089760;28;20233;-74
2021/10/24 05:03:09;;;;;;;6.27;1.30;;;25.10;92.30;;;;;;5092286;28;20545;-74
2021/10/24 05:05:36;;;;;;;7.37;1.77;;;25.40;91.90;;;;;;5089680;28;20213;-73
2021/10/24 05:08:04;;;;;;;11.40;1.83;;;25.40;91.90;;;;;;5091444;28;20188;-75
2021/10/24 05:10:31;;;;;;;12.23;2.07;;;25.70;91.90;;;;;;5088485;28;20174;-74
2021/10/24 05:12:58;;;;;;;7.40;1.60;;;26.20;91.60;;;;;;5085663;28;20219;-71
2021/10/24 05:15:26;;;;;;;8.63;1.77;;;25.30;92.40;;;;;;5085149;28;20618;-74
2021/10/24 05:17:54;;;;;;;7.50;2.13;;;24.80;92.20;;;;;;5090233;28;20614;-74
2021/10/24 05:20:21;;;;;;;7.37;1.47;;;25.00;92.60;;;;;;5092443;28;20178;-72
2021/10/24 05:22:48;;;;;;;8.57;1.50;;;24.80;92.10;;;;;;5089874;28;20178;-76
2021/10/24 05:25:16;;;;;;;7.87;1.83;;;24.40;93.10;;;;;;5092733;28;20664;-73
2021/10/24 05:27:43;;;;;;;5.63;1.23;;;25.40;92.40;;;;;;5085232;28;20185;-74
2021/10/24 05:30:11;;;;;;;7.83;1.50;;;25.40;91.70;;;;;;5089764;28;20619;-73
2021/10/24 05:32:38;;;;;;;10.23;1.60;;;26.10;91.80;;;;;;5089905;28;20175;-71
2021/10/24 05:35:06;;;;;;;9.47;1.83;;;26.70;90.70;;;;;;5091089;28;20351;-76
2021/10/24 05:37:34;;;;;;;6.37;1.40;;;27.20;90.50;;;;;;5088146;28;20566;-74
2021/10/24 05:40:01;;;;;;;5.83;1.77;;;27.30;89.60;;;;;;5091861;28;20183;-72
2021/10/24 05:42:28;;;;;;;11.87;1.80;;;26.80;89.90;;;;;;5086784;28;20194;-71
2021/10/24 05:44:55;;;;;;;5.43;1.20;;;25.80;90.20;;;;;;5091926;28;20218;-72
2021/10/24 05:47:23;;;;;;;5.67;1.47;;;25.90;90.50;;;;;;5092193;28;20189;-74
2021/10/24 05:49:51;;;;;;;6.67;1.50;;;25.80;90.60;;;;;;5085173;28;20190;-74
2021/10/24 05:52:18;;;;;;;5.40;1.50;;;26.40;90.30;;;;;;5091799;28;20632;-75
2021/10/24 05:54:46;;;;;;;5.57;1.67;;;26.60;88.80;;;;;;5092012;28;20251;-74
2021/10/24 05:57:13;;;;;;;5.50;1.73;;;26.20;88.60;;;;;;5091586;28;20187;-73
2021/10/24 05:59:41;;;;;;;8.63;1.33;;;25.70;90.10;;;;;;5091128;28;20653;-76
2021/10/24 06:02:11;;;;;;;9.67;1.70;;;26.60;89.70;;;;;;5091320;28;20174;-77
2021/10/24 06:04:39;;;;;;;2.90;1.50;;;27.60;87.70;;;;;;5089638;28;20188;-75
2021/10/24 06:07:06;;;;;;;4.97;1.27;;;26.90;87.00;;;;;;5092136;28;20200;-73
2021/10/24 06:09:42;;;;;;;5.03;1.27;;;26.30;88.00;;;;;;5091688;28;20629;-77
2021/10/24 06:12:28;;;;;;;8.10;1.40;;;25.80;89.40;;;;;;5081797;28;20625;-73
2021/10/24 06:14:55;;;;;;;8.80;2.13;;;25.50;89.00;;;;;;5090132;28;20237;-78
2021/10/24 06:17:23;;;;;;;5.47;1.97;;;24.40;90.40;;;;;;5084937;28;20289;-74
2021/10/24 06:19:50;;;;;;;5.33;1.30;;;23.80;91.00;;;;;;5086617;28;20190;-75
2021/10/24 06:22:18;;;;;;;3.80;1.20;;;23.60;91.50;;;;;;5089904;28;20247;-73
2021/10/24 06:24:45;;;;;;;6.87;1.57;;;24.10;91.20;;;;;;5092783;28;20214;-72
2021/10/24 06:27:12;;;;;;;5.87;1.47;;;24.50;90.70;;;;;;5091368;28;20186;-72
2021/10/24 06:29:40;;;;;;;3.67;1.40;;;25.50;90.10;;;;;;5091115;28;20178;-74
2021/10/24 06:32:07;;;;;;;5.53;1.37;;;26.20;88.70;;;;;;5091631;28;20706;-73
2021/10/24 06:34:34;;;;;;;7.07;1.30;;;26.10;87.60;;;;;;5086000;28;20210;-73
2021/10/24 06:37:02;;;;;;;7.30;1.30;;;25.10;89.30;;;;;;5091354;28;20185;-74
2021/10/24 06:39:29;;;;;;;6.70;1.40;;;24.50;90.30;;;;;;5086124;28;20187;-74
2021/10/24 06:41:57;;;;;;;11.23;2.07;;;23.70;90.80;;;;;;5086557;28;20179;-73
2021/10/24 06:44:24;;;;;;;7.00;1.50;;;23.00;91.60;;;;;;5085720;28;20191;-73
2021/10/24 06:46:52;;;;;;;6.00;1.43;;;22.70;92.40;;;;;;5089344;28;20649;-74
2021/10/24 06:49:19;;;;;;;8.77;1.30;;;22.30;92.90;;;;;;5090121;28;20661;-72
2021/10/24 06:51:46;;;;;;;8.33;1.23;;;22.40;92.90;;;;;;5088793;28;20201;-74
2021/10/24 06:54:14;;;;;;;8.63;1.60;;;22.60;92.90;;;;;;5092476;28;20217;-70
2021/10/24 06:56:41;;;;;;;7.70;1.87;;;22.30;92.70;;;;;;5090437;28;20183;-72
2021/10/24 06:59:08;;;;;;;6.37;1.83;;;22.30;93.10;;;;;;5089111;28;20202;-73
2021/10/24 07:01:35;;;;;;;5.47;1.40;;;22.50;93.00;;;;;;5090666;28;20193;-74
2021/10/24 07:04:04;;;;;;;8.37;1.87;;;22.70;92.90;;;;;;5091097;28;20253;-72
2021/10/24 07:06:31;;;;;;;12.50;4.93;;;23.10;92.60;;;;;;5088568;28;20584;-73
2021/10/24 07:08:58;;;;;;;6.73;2.40;;;23.30;92.20;;;;;;5073459;28;20179;-73
2021/10/24 07:11:25;;;;;;;9.03;2.73;;;22.80;92.60;;;;;;5091824;28;20580;-73
2021/10/24 07:13:53;;;;;;;7.77;1.47;;;22.40;93.00;;;;;;5095410;28;20569;-74
2021/10/24 07:16:20;;;;;;;4.50;1.27;;;22.30;93.40;;;;;;5095638;28;20293;-75
2021/10/24 07:18:47;;;;;;;4.97;1.53;;;21.90;93.70;;;;;;5096027;28;20210;-73
2021/10/24 07:21:15;;;;;;;6.20;1.73;;;21.70;94.10;;;;;;5090250;28;20172;-73
2021/10/24 07:23:42;;;;;;;9.20;1.90;;;21.90;93.80;;;;;;5094787;28;20244;-73
2021/10/24 07:26:10;;;;;;;10.80;2.13;;;21.20;94.70;;;;;;5095385;28;20171;-72
2021/10/24 07:28:37;;;;;;;6.07;1.77;;;20.90;95.40;;;;;;5094067;28;20174;-73
2021/10/24 07:31:04;;;;;;;11.03;1.87;;;20.50;95.90;;;;;;5095615;28;20201;-73
2021/10/24 07:33:32;;;;;;;7.53;1.77;;;20.00;96.80;;;;;;5094929;28;20171;-74
2021/10/24 07:35:59;;;;;;;6.13;1.93;;;19.80;97.20;;;;;;5094837;28;20277;-74
2021/10/24 07:38:27;;;;;;;11.93;1.40;;;19.80;97.50;;;;;;5095602;28;20159;-74
2021/10/24 07:40:54;;;;;;;6.23;1.50;;;19.70;96.90;;;;;;5095126;28;20238;-73
2021/10/24 07:43:23;;;;;;;4.13;1.50;;;19.90;96.70;;;;;;5094757;28;20507;-73
2021/10/24 07:45:51;;;;;;;9.50;1.50;;;20.00;96.40;;;;;;5095025;28;20261;-73
2021/10/24 07:48:22;;;;;;;7.13;1.47;;;19.90;95.90;;;;;;5094978;28;20632;-72
2021/10/24 07:50:51;;;;;;;6.33;1.20;;;19.70;95.80;;;;;;5095245;28;20628;-73
2021/10/24 07:53:25;;;;;;;6.97;1.70;;;19.50;96.10;;;;;;5095038;28;20185;-73
2021/10/24 07:55:53;;;;;;;9.57;2.13;;;19.50;96.10;;;;;;5094792;28;20237;-72
2021/10/24 07:58:21;;;;;;;9.60;2.03;;;19.50;96.20;;;;;;5094946;28;20183;-73
2021/10/24 08:00:51;;;;;;;11.53;1.60;;;19.30;96.40;;;;;;5094824;28;20210;-71
2021/10/24 08:03:20;;;;;;;6.03;1.50;;;19.20;96.70;;;;;;5095028;28;20179;-74
2021/10/24 08:05:47;;;;;;;4.03;1.40;;;19.20;96.80;;;;;;5094565;28;20178;-73
2021/10/24 08:08:15;;;;;;;2.93;1.30;;;19.20;96.70;;;;;;5094844;28;20199;-73
2021/10/24 08:10:42;;;;;;;9.13;1.43;;;19.30;96.70;;;;;;5084704;28;20183;-73
2021/10/24 08:13:09;;;;;;;6.43;1.30;;;19.20;96.60;;;;;;5082174;28;20337;-73
2021/10/24 08:15:37;;;;;;;10.53;1.67;;;19.10;96.80;;;;;;5094667;28;20206;-73
2021/10/24 08:18:04;;;;;;;5.23;1.40;;;19.00;97.10;;;;;;5095125;28;20181;-72
2021/10/24 08:20:32;;;;;;;7.07;1.60;;;18.80;97.60;;;;;;5094593;28;20183;-73
2021/10/24 08:22:59;;;;;;;5.90;1.87;;;18.80;97.60;;;;;;5094409;28;20581;-73
2021/10/24 08:25:28;;;;;;;9.17;1.40;;;18.70;97.60;;;;;;5094803;28;20178;-73
2021/10/24 08:27:55;;;;;;;5.57;1.70;;;18.60;97.70;;;;;;5094445;28;20671;-74
2021/10/24 08:30:22;;;;;;;11.33;2.67;;;18.50;97.90;;;;;;5094633;28;20182;-74
2021/10/24 08:32:51;;;;;;;11.27;2.00;;;18.50;98.10;;;;;;5094882;28;20179;-73
2021/10/24 08:35:19;;;;;;;14.10;1.70;;;18.50;98.30;;;;;;5094573;28;20210;-74
2021/10/24 08:37:48;;;;;;;4.40;1.63;;;18.60;98.40;;;;;;5094569;28;20648;-74
2021/10/24 08:40:16;;;;;;;5.37;1.93;;;18.60;98.30;;;;;;5094687;28;20243;-72
2021/10/24 08:42:47;;;;;;;5.03;1.20;;;18.60;98.20;;;;;;5094327;28;20173;-74
2021/10/24 08:45:14;;;;;;;6.10;1.27;;;18.50;98.40;;;;;;5094749;28;20185;-74
2021/10/24 08:47:42;;;;;;;7.97;2.57;;;18.40;98.70;;;;;;5094259;28;20262;-74
2021/10/24 08:50:10;;;;;;;4.90;1.30;;;18.40;98.50;;;;;;5094587;28;20193;-74
2021/10/24 08:52:39;;;;;;;6.83;1.40;;;18.40;98.80;;;;;;5091381;28;20186;-74
2021/10/24 08:55:08;;;;;;;4.83;1.50;;;18.30;98.90;;;;;;5093726;28;20253;-73
2021/10/24 08:57:35;;;;;;;8.90;2.00;;;18.40;98.90;;;;;;5093158;28;20265;-72
2021/10/24 09:00:06;;;;;;;6.80;1.27;;;18.50;98.90;;;;;;5092332;28;20184;-73
2021/10/24 09:03:12;;;;;;;10.63;3.00;;;18.40;98.90;;;;;;5073575;28;20167;-72
2021/10/24 09:05:47;;;;;;;5.77;2.43;;;18.40;98.90;;;;;;5030714;28;20646;-73
2021/10/24 09:08:20;;;;;;;6.40;1.63;;;18.50;99.20;;;;;;5031506;28;20559;-72
2021/10/24 09:10:52;;;;;;;6.13;1.53;;;18.50;99.00;;;;;;5056322;28;20188;-72
2021/10/24 09:13:27;;;;;;;7.20;1.60;;;18.40;99.20;;;;;;5093020;28;20217;-73
2021/10/24 09:16:00;;;;;;;6.33;1.50;;;18.50;99.00;;;;;;5093317;28;20285;-73
2021/10/24 09:18:41;;;;;;;6.93;1.43;;;18.60;99.00;;;;;;5093442;28;20646;-72
2021/10/24 09:21:20;;;;;;;6.40;1.70;;;18.50;98.90;;;;;;5093783;28;20178;-72
2021/10/24 09:24:10;;;;;;;7.57;1.60;;;18.50;99.00;;;;;;5086251;28;20181;-72
2021/10/24 09:26:39;;;;;;;5.57;1.60;;;18.50;98.70;;;;;;5093026;28;20632;-73
2021/10/24 09:29:13;;;;;;;8.00;1.27;;;18.50;99.90;;;;;;5093217;28;20189;-74
2021/10/24 09:31:51;;;;;;;5.37;1.40;;;18.50;99.90;;;;;;5093268;28;20178;-76
2021/10/24 09:34:23;;;;;;;6.60;1.33;;;18.40;99.90;;;;;;5093526;28;20166;-76
2021/10/24 09:36:58;;;;;;;13.47;1.70;;;18.20;99.90;;;;;;5093260;28;20213;-77
2021/10/24 09:39:35;;;;;;;16.47;2.37;;;18.10;99.90;;;;;;5088886;28;20247;-75
2021/10/24 09:42:11;;;;;;;9.27;1.63;;;17.90;99.90;;;;;;5092018;28;20210;-71
2021/10/24 09:44:58;;;;;;;7.77;1.83;;;17.80;99.90;;;;;;5086122;28;20194;-67
2021/10/24 09:47:25;;;;;;;4.67;1.83;;;17.60;99.90;;;;;;5091336;28;20189;-66
2021/10/24 09:49:53;;;;;;;17.63;2.97;;;17.50;99.90;;;;;;5091847;28;20549;-69
2021/10/24 09:52:31;;;;;;;8.43;1.80;;;17.50;99.90;;;;;;5091887;28;20617;-65
2021/10/24 09:54:59;;;;;;;9.43;2.00;;;17.40;99.90;;;;;;5093128;28;20223;-65
2021/10/24 09:57:28;;;;;;;7.20;1.73;;;17.20;99.90;;;;;;5081776;28;20266;-67
2021/10/24 09:59:56;;;;;;;11.00;2.17;;;17.00;99.90;;;;;;5092796;28;20299;-66
2021/10/24 10:02:24;;;;;;;11.57;1.93;;;17.00;99.90;;;;;;5093022;28;20550;-67
2021/10/24 10:04:51;;;;;;;11.23;1.83;;;17.00;99.90;;;;;;5092711;28;20712;-67
2021/10/24 10:07:20;;;;;;;7.77;2.13;;;17.00;99.90;;;;;;5092190;28;20195;-67
2021/10/24 10:09:50;;;;;;;12.63;1.73;;;16.70;99.90;;;;;;5084277;28;20244;-68
2021/10/24 10:12:22;;;;;;;8.87;2.77;;;16.50;99.90;;;;;;5087115;28;20265;-68
2021/10/24 10:14:55;;;;;;;7.67;1.60;;;16.20;99.90;;;;;;5092255;28;20220;-67
2021/10/24 10:17:24;;;;;;;6.77;2.27;;;16.20;99.90;;;;;;5092860;28;20295;-68
2021/10/24 10:19:54;;;;;;;8.87;1.83;;;16.40;99.90;;;;;;5092411;28;20208;-66
2021/10/24 10:22:31;;;;;;;6.00;1.70;;;16.20;99.90;;;;;;5092000;28;20179;-67
2021/10/24 10:25:05;;;;;;;10.00;2.17;;;16.10;99.90;;;;;;5092713;28;20273;-67
2021/10/24 10:27:40;;;;;;;10.93;1.90;;;16.10;99.90;;;;;;5091937;28;20191;-68
2021/10/24 10:30:40;;;;;;;5.20;1.40;;;16.10;99.90;;;;;;5091688;28;20189;-67
2021/10/24 10:33:33;;;;;;;11.10;1.83;;;16.10;99.90;;;;;;5090852;28;20618;-68
2021/10/24 10:36:08;;;;;;;8.80;1.57;;;16.10;99.90;;;;;;5091837;28;20802;-67
2021/10/24 10:38:41;;;;;;;6.27;1.50;;;16.10;99.90;;;;;;5092623;28;20171;-66
2021/10/24 10:41:14;;;;;;;5.03;1.43;;;16.10;99.90;;;;;;5092606;28;20198;-67
2021/10/24 10:44:07;;;;;;;7.07;1.60;;;16.00;99.90;;;;;;5091657;28;20219;-67
2021/10/24 10:46:35;;;;;;;9.90;1.43;;;16.00;99.90;;;;;;5090249;28;20269;-67
2021/10/24 10:49:37;;;;;;;7.13;1.50;;;16.10;99.90;;;;;;5096598;28;20217;-68
2021/10/24 10:52:38;;;;;;;7.53;1.70;;;16.20;99.90;;;;;;5029076;28;20187;-66
2021/10/24 10:55:06;;;;;;;7.25;1.98;;;16.20;99.90;;;;;;5092694;28;20414;-67
2021/10/24 10:57:33;;;;;;;9.47;1.60;;;16.10;99.90;;;;;;5088517;28;20186;-67
2021/10/24 11:00:33;;;;;;;5.27;1.70;;;16.10;99.90;;;;;;5095104;28;20185;-67
2021/10/24 11:03:00;;;;;;;5.30;1.60;;;16.10;99.90;;;;;;5091096;28;20185;-67
2021/10/24 11:05:36;;;;;;;4.60;1.47;;;16.10;99.90;;;;;;5090857;28;20530;-68
2021/10/24 11:08:03;;;;;;;4.57;1.80;;;16.10;99.90;;;;;;5096133;28;20188;-67
2021/10/24 11:10:46;;;;;;;6.23;1.30;;;16.10;99.90;;;;;;5094878;28;20180;-67
2021/10/24 11:13:41;;;;;;;7.27;1.23;;;16.10;99.90;;;;;;5094050;28;20218;-67
2021/10/24 11:16:47;;;;;;;8.83;1.67;;;16.00;99.90;;;;;;5094507;28;20214;-68
2021/10/24 11:19:48;;;;;;;7.73;1.50;;;16.10;99.90;;;;;;5095639;28;20182;-68
2021/10/24 11:22:19;;;;;;;5.13;1.50;;;16.10;99.90;;;;;;5095792;28;20203;-67
2021/10/24 11:24:55;;;;;;;3.37;1.70;;;16.20;99.90;;;;;;5084640;28;20245;-67
2021/10/24 11:27:31;;;;;;;9.03;1.83;;;16.30;99.90;;;;;;5095380;28;20264;-68
2021/10/24 11:30:06;;;;;;;3.80;1.30;;;16.10;99.90;;;;;;5081329;28;20174;-68
2021/10/24 11:32:36;;;;;;;7.43;1.90;;;16.20;99.90;;;;;;5095876;28;20593;-68
2021/10/24 11:35:13;;;;;;;4.10;1.50;;;16.20;99.90;;;;;;5095584;28;20244;-69
2021/10/24 11:37:47;;;;;;;7.70;1.40;;;16.20;99.90;;;;;;5095006;28;20547;-68
2021/10/24 11:40:19;;;;;;;6.50;1.40;;;16.20;99.90;;;;;;5095690;28;20176;-68
2021/10/24 11:43:11;;;;;;;6.37;1.63;;;16.10;99.90;;;;;;5095591;28;20266;-68
2021/10/24 11:45:43;;;;;;;11.43;1.60;;;16.20;99.90;;;;;;5084864;28;20184;-69
2021/10/24 11:48:31;;;;;;;6.50;1.30;;;16.20;99.90;;;;;;5095028;28;20222;-71
2021/10/24 11:51:04;;;;;;;3.80;1.30;;;16.30;99.90;;;;;;5093560;28;20582;-72
2021/10/24 11:53:37;;;;;;;5.97;1.30;;;16.40;99.90;;;;;;5095165;28;20210;-70
2021/10/24 12:01:36;;;;;;;4.77;1.40;;;16.10;99.90;;;;;;5086387;28;20167;-71
2021/10/24 12:04:09;;;;;;;9.07;2.37;;;16.10;99.90;;;;;;5094695;28;20185;-69
2021/10/24 12:06:59;;;;;;;3.83;1.33;;;16.00;99.90;;;;;;5094516;28;20186;-70
2021/10/24 12:09:40;;;;;;;7.13;1.67;;;16.00;99.90;;;;;;5094859;28;20243;-72
2021/10/24 12:12:11;;;;;;;5.23;1.50;;;16.10;99.90;;;;;;5093904;28;20209;-70
2021/10/24 12:15:00;;;;;;;7.20;2.13;;;16.20;99.90;;;;;;5093995;28;20229;-69
2021/10/24 12:17:32;;;;;;;8.70;1.77;;;16.10;99.90;;;;;;5083275;28;20240;-72
2021/10/24 12:20:18;;;;;;;6.03;1.30;;;16.10;99.90;;;;;;5094479;28;20179;-70
2021/10/24 12:22:58;;;;;;;8.10;1.83;;;16.00;99.90;;;;;;5092306;28;20195;-70
2021/10/24 12:25:45;;;;;;;6.37;1.80;;;15.90;99.90;;;;;;5079703;28;20207;-72
2021/10/24 12:28:18;;;;;;;7.47;1.73;;;15.80;99.90;;;;;;5085588;28;20191;-72
2021/10/24 12:30:58;;;;;;;9.23;2.30;;;15.90;99.90;;;;;;5094418;28;20207;-70
2021/10/24 12:33:34;;;;;;;10.50;1.87;;;15.80;99.90;;;;;;5094308;28;20179;-72
2021/10/24 12:36:07;;;;;;;5.73;1.43;;;15.70;99.90;;;;;;5079755;28;20237;-72
2021/10/24 12:38:51;;;;;;;10.43;1.73;;;15.70;99.90;;;;;;5094461;28;20634;-72
2021/10/24 12:41:39;;;;;;;6.53;1.60;;;15.70;99.90;;;;;;5082553;28;20809;-71
2021/10/24 12:44:09;;;;;;;7.73;1.70;;;15.70;99.90;;;;;;5086527;28;20182;-71
2021/10/24 12:46:40;;;;;;;3.63;1.60;;;15.70;99.90;;;;;;5092117;28;20178;-71
2021/10/24 12:49:15;;;;;;;5.77;1.97;;;15.70;99.90;;;;;;5094514;28;20231;-71
2021/10/24 12:51:45;;;;;;;8.00;1.63;;;15.70;99.90;;;;;;5084094;28;20607;-73
2021/10/24 12:54:25;;;;;;;5.40;1.80;;;15.70;99.90;;;;;;5094489;28;20177;-71
2021/10/24 12:56:52;;;;;;;3.73;1.40;;;15.70;99.90;;;;;;5079898;28;20217;-70
2021/10/24 12:59:20;;;;;;;6.43;1.70;;;15.70;99.90;;;;;;5079830;28;20191;-71
2021/10/24 13:01:49;;;;;;;9.07;1.40;;;15.70;99.90;;;;;;5093089;28;20187;-72
2021/10/24 13:04:17;;;;;;;5.23;1.50;;;15.70;99.90;;;;;;5080237;28;20185;-72
2021/10/24 13:06:44;;;;;;;5.60;1.63;;;15.80;99.90;;;;;;5083348;28;20221;-72